Colfax, Kentucky
Current Conditions -  °F | °C
As of 1:10 AM on Saturday 29 Nov 2014 (Local Time) from KSYM Reporting Station
Clear Clear  
Wind Chill: 32°   Ceiling: Unl
Heat Index: 32°   Visibility: 10mi
Dew Point: 18°   Wind: 3mph
Humidity: 55%   Direction: NA
Pressure: 30.13"   Gusts: NA
Location:  38.2838°N, 83.678°W
Report Text: KSYM 290610Z AUTO VRB03KT 10SM CLR 00/M08 A3013 RMK AO2
Loading
Personal Weather Stations






























Interactive Weather Map New forecast layout! Learn more

10-Day Weather Forecast

Advertisements
Track Severe Weather on mobile